Terminal Aerodrome Forecast
Issued by NWS Charleston, WV

Current Version | Previous Version | Text Only | Print | Product List | Glossary Off
Versions: 1 2 3 4 5 6 7 8 9 10 11 12 13 14 15 16 17 18 19 20 21 22 23

000
FTUS41 KRLX 021700
TAFPKB
TAF
KPKB 021740Z 0218/0318 32008KT P6SM BKN025
     FM022000 30006KT P6SM SCT025 SCT250
     FM030700 VRB02KT P6SM BKN150
     FM031100 14003KT P6SM OVC050
     FM031600 17005KT 4SM -RA BR OVC020=

USA.gov is the U.S. government's official web portal to all federal, state and local government web resources and services.